Time;durP1;ratioP1;P1;durP2;ratioP2;P2;SDS_P1;SDS_P2;PMS_P1;PMS_P2;Temp;Humidity;BMP_temperature;BMP_pressure;BME280_temperature;BME280_humidity;BME280_pressure;Samples;Min_cycle;Max_cycle;Signal;HPM_P1;HPM_P2
2021/06/02 00:00:52;;;;;;;6.10;5.25;;;14.90;99.90;;;;;;5079543;28;20325;-77
2021/06/02 00:03:39;;;;;;;7.67;5.50;;;14.90;99.90;;;;;;5079733;28;20221;-78
2021/06/02 00:06:26;;;;;;;7.68;5.65;;;14.80;99.90;;;;;;5077511;28;20238;-77
2021/06/02 00:08:56;;;;;;;6.10;5.20;;;14.80;99.90;;;;;;5076376;28;20284;-79
2021/06/02 00:11:24;;;;;;;7.43;5.77;;;14.70;99.90;;;;;;5074125;28;20236;-78
2021/06/02 00:13:53;;;;;;;7.00;5.77;;;14.80;99.90;;;;;;5074887;28;20234;-80
2021/06/02 00:16:20;;;;;;;7.50;6.07;;;14.80;99.90;;;;;;5074432;28;20296;-78
2021/06/02 00:18:48;;;;;;;6.40;5.82;;;14.80;99.90;;;;;;5074455;28;20242;-80
2021/06/02 00:21:15;;;;;;;7.05;5.60;;;14.80;99.90;;;;;;5074227;28;20207;-79
2021/06/02 00:23:42;;;;;;;7.00;5.70;;;14.90;99.90;;;;;;5073095;28;20200;-77
2021/06/02 00:26:13;;;;;;;7.33;6.00;;;14.80;99.90;;;;;;5073082;28;20616;-79
2021/06/02 00:28:42;;;;;;;9.05;6.40;;;14.80;99.90;;;;;;5072913;28;20195;-79
2021/06/02 00:31:11;;;;;;;9.40;6.70;;;14.80;99.90;;;;;;5072353;28;20204;-78
2021/06/02 00:33:39;;;;;;;6.30;5.70;;;14.90;99.90;;;;;;5072758;28;20196;-75
2021/06/02 00:36:07;;;;;;;6.43;5.72;;;14.90;99.90;;;;;;5072609;28;20205;-77
2021/06/02 00:38:35;;;;;;;7.32;6.32;;;15.00;99.90;;;;;;5072704;28;20564;-77
2021/06/02 00:41:03;;;;;;;8.10;6.10;;;14.90;99.90;;;;;;5074362;28;20298;-78
2021/06/02 00:43:32;;;;;;;6.93;6.23;;;14.90;99.90;;;;;;5076431;28;20312;-79
2021/06/02 00:46:01;;;;;;;7.97;5.67;;;14.90;99.90;;;;;;5076116;28;20239;-78
2021/06/02 00:48:29;;;;;;;9.60;6.68;;;15.00;99.90;;;;;;5076040;28;20251;-77
2021/06/02 00:50:56;;;;;;;7.90;6.13;;;15.00;99.90;;;;;;5075792;28;20199;-77
2021/06/02 00:53:23;;;;;;;7.47;6.30;;;15.00;99.90;;;;;;5076230;28;20181;-78
2021/06/02 00:55:51;;;;;;;6.90;6.18;;;15.00;99.90;;;;;;5076160;28;20200;-77
2021/06/02 00:58:28;;;;;;;6.90;6.20;;;15.00;99.90;;;;;;5075872;28;20211;-75
2021/06/02 01:00:56;;;;;;;7.93;6.97;;;14.90;99.90;;;;;;5075681;28;20207;-78
2021/06/02 01:03:28;;;;;;;8.15;7.00;;;14.90;99.90;;;;;;5055996;28;20251;-77
2021/06/02 01:05:56;;;;;;;7.72;6.97;;;14.80;99.90;;;;;;5055887;28;20186;-77
2021/06/02 01:08:24;;;;;;;10.73;6.75;;;14.80;99.90;;;;;;5055893;28;20264;-77
2021/06/02 01:10:52;;;;;;;7.47;6.77;;;14.90;99.90;;;;;;5056455;28;20204;-77
2021/06/02 01:13:21;;;;;;;7.47;6.57;;;14.90;99.90;;;;;;5056202;28;20207;-77
2021/06/02 01:15:50;;;;;;;10.55;7.25;;;14.90;99.90;;;;;;5055695;28;20205;-78
2021/06/02 01:18:19;;;;;;;7.30;6.60;;;14.80;99.90;;;;;;5055973;28;20207;-76
2021/06/02 01:20:50;;;;;;;7.95;7.15;;;14.80;99.90;;;;;;5056240;28;20271;-79
2021/06/02 01:23:18;;;;;;;7.23;6.53;;;14.80;99.90;;;;;;5055792;28;20182;-77
2021/06/02 01:25:46;;;;;;;7.33;6.60;;;14.90;99.90;;;;;;5062092;28;20296;-77
2021/06/02 01:28:13;;;;;;;8.52;6.90;;;14.80;99.90;;;;;;5075003;28;20224;-77
2021/06/02 01:30:41;;;;;;;9.93;6.90;;;14.80;99.90;;;;;;5075168;28;20199;-78
2021/06/02 01:33:25;;;;;;;9.80;7.63;;;14.90;99.90;;;;;;5075424;28;20236;-76
2021/06/02 01:36:04;;;;;;;8.65;6.60;;;14.90;99.90;;;;;;5075218;28;20672;-78
2021/06/02 01:39:07;;;;;;;7.47;6.72;;;14.90;99.90;;;;;;5075290;28;20713;-79
2021/06/02 01:41:57;;;;;;;10.40;7.30;;;14.90;99.90;;;;;;5074759;28;20221;-78
2021/06/02 01:44:55;;;;;;;7.63;6.93;;;14.80;99.90;;;;;;5075246;28;20276;-76
2021/06/02 01:47:54;;;;;;;7.63;6.57;;;14.80;99.90;;;;;;5074948;28;20686;-78
2021/06/02 01:50:45;;;;;;;8.63;7.50;;;14.80;99.90;;;;;;5074766;28;20628;-78
2021/06/02 01:53:36;;;;;;;7.70;6.60;;;14.80;99.90;;;;;;5041344;28;20295;-76
2021/06/02 01:56:46;;;;;;;7.90;6.37;;;14.80;99.90;;;;;;5074811;28;20201;-76
2021/06/02 01:59:57;;;;;;;7.95;6.75;;;14.80;99.90;;;;;;5074799;28;20185;-77
2021/06/02 02:03:08;;;;;;;7.67;6.47;;;14.70;99.90;;;;;;5086573;28;20632;-78
2021/06/02 02:06:04;;;;;;;8.93;7.33;;;14.80;99.90;;;;;;5094879;28;20200;-76
2021/06/02 02:08:47;;;;;;;7.93;7.13;;;14.70;99.90;;;;;;5095136;28;20184;-76
2021/06/02 02:11:30;;;;;;;9.23;6.90;;;14.70;99.90;;;;;;5093021;28;20294;-78
2021/06/02 02:14:16;;;;;;;8.37;6.73;;;14.70;99.90;;;;;;5094733;28;20188;-76
2021/06/02 02:17:15;;;;;;;10.73;7.20;;;14.60;99.90;;;;;;5094609;28;20200;-77
2021/06/02 02:20:05;;;;;;;7.57;6.77;;;14.70;99.90;;;;;;5094570;28;20316;-78
2021/06/02 02:22:45;;;;;;;7.93;6.80;;;14.60;99.90;;;;;;5094691;28;20630;-78
2021/06/02 02:25:21;;;;;;;8.57;7.60;;;14.70;99.90;;;;;;5092496;28;20246;-77
2021/06/02 02:27:59;;;;;;;9.20;6.50;;;14.70;99.90;;;;;;5074038;28;20625;-78
2021/06/02 02:30:39;;;;;;;7.30;6.60;;;14.70;99.90;;;;;;5073851;28;20570;-78
2021/06/02 02:33:22;;;;;;;7.78;6.72;;;14.70;99.90;;;;;;5074166;28;20273;-77
2021/06/02 02:36:01;;;;;;;7.55;6.78;;;14.60;99.90;;;;;;5074059;28;20283;-77
2021/06/02 02:38:47;;;;;;;8.70;6.77;;;14.60;99.90;;;;;;5073858;28;20694;-76
2021/06/02 02:41:30;;;;;;;7.87;6.57;;;14.60;99.90;;;;;;5073763;28;20293;-76
2021/06/02 02:44:12;;;;;;;8.23;6.87;;;14.70;99.90;;;;;;5073968;28;20191;-78
2021/06/02 02:46:49;;;;;;;8.43;7.53;;;14.60;99.90;;;;;;5073963;28;20187;-77
2021/06/02 02:49:26;;;;;;;7.22;6.53;;;14.70;99.90;;;;;;5073861;28;20185;-77
2021/06/02 02:52:05;;;;;;;7.55;6.85;;;14.70;99.90;;;;;;5073258;28;20228;-77
2021/06/02 02:54:44;;;;;;;7.20;6.50;;;14.70;99.90;;;;;;5074225;28;20188;-77
2021/06/02 02:57:19;;;;;;;8.10;6.97;;;14.70;99.90;;;;;;5073911;28;20196;-78
2021/06/02 02:59:52;;;;;;;9.75;7.57;;;14.60;99.90;;;;;;5073705;28;20188;-77
2021/06/02 03:02:28;;;;;;;9.50;7.70;;;14.60;99.90;;;;;;5084888;28;20723;-76
2021/06/02 03:05:01;;;;;;;8.83;7.87;;;14.60;99.90;;;;;;5093509;28;20184;-76
2021/06/02 03:07:35;;;;;;;11.02;8.00;;;14.60;99.90;;;;;;5093794;28;20609;-77
2021/06/02 03:10:08;;;;;;;9.07;8.13;;;14.50;99.90;;;;;;5093780;28;20179;-76
2021/06/02 03:12:51;;;;;;;12.17;7.63;;;14.50;99.90;;;;;;5093671;28;20180;-78
2021/06/02 03:15:40;;;;;;;10.17;8.07;;;14.50;99.90;;;;;;5093517;28;20206;-76
2021/06/02 03:18:18;;;;;;;9.37;8.47;;;14.50;99.90;;;;;;5093582;28;20191;-76
2021/06/02 03:21:00;;;;;;;10.10;7.87;;;14.50;99.90;;;;;;5093372;28;20749;-77
2021/06/02 03:23:42;;;;;;;9.87;8.00;;;14.50;99.90;;;;;;5093470;28;20650;-75
2021/06/02 03:26:12;;;;;;;8.87;7.97;;;14.50;99.90;;;;;;5083376;28;20295;-77
2021/06/02 03:28:56;;;;;;;8.93;8.03;;;14.60;99.90;;;;;;5073396;28;20287;-77
2021/06/02 03:31:31;;;;;;;9.57;8.07;;;14.50;99.90;;;;;;5072848;28;20277;-77
2021/06/02 03:34:23;;;;;;;11.03;8.17;;;14.50;99.90;;;;;;5072967;28;20199;-77
2021/06/02 03:37:19;;;;;;;10.02;8.20;;;14.50;99.90;;;;;;5065693;28;20281;-77
2021/06/02 03:39:49;;;;;;;10.37;8.27;;;14.50;99.90;;;;;;5070773;28;20720;-78
2021/06/02 03:42:27;;;;;;;9.53;7.90;;;14.50;99.90;;;;;;5073083;28;20276;-77
2021/06/02 03:45:04;;;;;;;8.50;7.60;;;14.50;99.90;;;;;;5072932;28;20185;-78
2021/06/02 03:47:44;;;;;;;9.47;7.87;;;14.50;99.90;;;;;;5072898;28;20295;-76
2021/06/02 03:50:16;;;;;;;8.67;7.77;;;14.50;99.90;;;;;;5072895;28;20268;-78
2021/06/02 03:53:02;;;;;;;10.75;8.10;;;14.50;99.90;;;;;;5072785;28;20256;-78
2021/06/02 03:55:33;;;;;;;9.25;8.18;;;14.60;99.90;;;;;;5072896;28;20205;-78
2021/06/02 03:58:11;;;;;;;11.67;8.57;;;14.60;99.90;;;;;;5072573;28;20789;-78
2021/06/02 04:00:44;;;;;;;11.73;8.53;;;14.60;99.90;;;;;;5072446;28;20669;-76
2021/06/02 04:03:20;;;;;;;10.67;8.17;;;14.70;99.90;;;;;;5091309;28;20194;-78
2021/06/02 04:05:53;;;;;;;9.80;8.27;;;14.70;99.90;;;;;;5092615;28;20608;-77
2021/06/02 04:08:28;;;;;;;9.85;8.85;;;14.70;99.90;;;;;;5092973;28;20181;-75
2021/06/02 04:11:08;;;;;;;13.80;8.60;;;14.70;99.90;;;;;;5093039;28;20188;-77
2021/06/02 04:13:47;;;;;;;9.17;8.07;;;14.80;99.90;;;;;;5092911;28;20180;-76
2021/06/02 04:16:19;;;;;;;9.73;8.50;;;14.80;99.90;;;;;;5095094;28;20180;-77
2021/06/02 04:18:48;;;;;;;9.77;8.48;;;14.80;99.90;;;;;;5096739;28;20705;-75
2021/06/02 04:21:17;;;;;;;12.40;8.50;;;14.80;99.90;;;;;;5096883;28;20216;-77
2021/06/02 04:23:47;;;;;;;9.23;8.23;;;14.90;99.90;;;;;;5096909;28;20311;-77
2021/06/02 04:26:15;;;;;;;9.03;7.93;;;15.00;99.90;;;;;;5086220;28;20201;-76
2021/06/02 04:28:43;;;;;;;10.48;8.50;;;15.10;99.90;;;;;;5076341;28;20239;-77
2021/06/02 04:31:13;;;;;;;9.70;8.33;;;15.10;99.90;;;;;;5078242;28;20227;-77
2021/06/02 04:33:43;;;;;;;10.60;8.83;;;15.10;99.90;;;;;;5076519;28;20267;-75
2021/06/02 04:36:14;;;;;;;12.33;8.73;;;15.10;99.90;;;;;;5075929;28;20204;-77
2021/06/02 04:38:42;;;;;;;10.43;8.73;;;15.20;99.90;;;;;;5076696;28;20209;-77
2021/06/02 04:41:11;;;;;;;12.13;8.57;;;15.30;99.90;;;;;;5076289;28;20606;-76
2021/06/02 04:43:39;;;;;;;11.73;8.98;;;15.30;99.90;;;;;;5076240;28;20325;-76
2021/06/02 04:46:08;;;;;;;9.80;7.95;;;15.40;99.90;;;;;;5075882;28;20687;-76
2021/06/02 04:48:36;;;;;;;9.43;7.97;;;15.60;99.90;;;;;;5078011;28;20311;-76
2021/06/02 04:51:35;;;;;;;11.07;8.60;;;15.60;99.90;;;;;;5075813;28;20677;-78
2021/06/02 04:54:47;;;;;;;10.18;8.43;;;15.70;99.90;;;;;;5077735;28;20621;-76
2021/06/02 04:57:47;;;;;;;11.40;8.10;;;15.70;99.90;;;;;;5075774;28;20299;-76
2021/06/02 05:00:38;;;;;;;12.93;8.88;;;15.70;99.90;;;;;;5075330;28;20871;-78
2021/06/02 05:04:01;;;;;;;9.73;7.82;;;15.70;99.90;;;;;;5093265;28;20218;-76
2021/06/02 05:07:04;;;;;;;11.35;8.35;;;15.80;99.90;;;;;;5060466;28;20284;-76
2021/06/02 05:10:08;;;;;;;10.15;8.32;;;16.00;99.90;;;;;;5032339;28;20279;-75
2021/06/02 05:13:08;;;;;;;10.82;8.15;;;16.10;99.90;;;;;;5072784;28;20263;-77
2021/06/02 05:16:08;;;;;;;10.68;8.27;;;16.20;99.90;;;;;;5064802;28;20195;-79
2021/06/02 05:19:16;;;;;;;11.57;7.80;;;16.30;99.90;;;;;;5072502;28;20679;-77
2021/06/02 05:22:12;;;;;;;9.38;7.93;;;16.30;99.90;;;;;;5074421;28;20303;-77
2021/06/02 05:25:13;;;;;;;9.38;7.80;;;16.50;99.90;;;;;;5075329;28;20279;-76
2021/06/02 05:28:18;;;;;;;11.70;7.70;;;17.70;99.90;;;;;;5074797;28;20587;-78
2021/06/02 05:31:28;;;;;;;8.20;7.10;;;18.50;99.90;;;;;;5074844;28;20207;-77
2021/06/02 05:34:24;;;;;;;7.97;7.10;;;18.40;99.90;;;;;;5075269;28;20300;-77
2021/06/02 05:37:30;;;;;;;9.73;7.45;;;18.20;99.90;;;;;;5075245;28;20268;-75
2021/06/02 05:40:23;;;;;;;10.02;7.60;;;18.00;99.90;;;;;;5027750;28;20842;-77
2021/06/02 05:43:32;;;;;;;9.23;7.90;;;17.90;99.90;;;;;;5075297;28;20185;-77
2021/06/02 05:46:36;;;;;;;6.97;6.30;;;17.70;99.90;;;;;;5074924;28;20248;-75
2021/06/02 05:49:28;;;;;;;10.07;7.47;;;17.80;99.90;;;;;;5074147;28;20196;-77
2021/06/02 05:52:22;;;;;;;8.02;7.20;;;18.00;99.90;;;;;;5074908;28;20224;-77
2021/06/02 05:55:15;;;;;;;8.10;7.07;;;18.40;99.90;;;;;;5074791;28;20181;-77
2021/06/02 05:58:19;;;;;;;8.00;7.00;;;18.50;99.90;;;;;;5073591;28;20272;-69
2021/06/02 06:01:39;;;;;;;8.90;6.95;;;18.80;99.90;;;;;;5050930;28;20604;-67
2021/06/02 06:04:54;;;;;;;8.68;6.90;;;19.10;99.90;;;;;;5057224;28;20276;-70
2021/06/02 06:07:56;;;;;;;10.85;6.95;;;19.70;99.90;;;;;;5071382;28;20185;-76
2021/06/02 06:10:43;;;;;;;9.07;6.20;;;20.40;99.90;;;;;;5063016;28;20242;-72
2021/06/02 06:13:44;;;;;;;9.50;6.82;;;20.90;99.90;;;;;;5071118;28;20223;-74
2021/06/02 06:16:57;;;;;;;6.80;5.88;;;21.30;99.90;;;;;;5068612;28;20215;-70
2021/06/02 06:19:53;;;;;;;8.70;5.80;;;21.40;99.90;;;;;;5046212;28;20209;-72
2021/06/02 06:22:36;;;;;;;8.93;6.25;;;21.20;99.90;;;;;;5071139;28;20560;-74
2021/06/02 06:25:10;;;;;;;8.40;5.65;;;21.20;99.90;;;;;;5070844;28;20189;-74
2021/06/02 06:27:45;;;;;;;7.88;5.95;;;21.20;99.90;;;;;;5070561;28;20192;-74
2021/06/02 06:30:18;;;;;;;5.88;5.20;;;21.80;99.90;;;;;;5067778;28;20711;-73
2021/06/02 06:32:51;;;;;;;6.72;5.50;;;22.10;99.90;;;;;;5073629;28;20640;-74
2021/06/02 06:35:21;;;;;;;5.53;4.85;;;22.50;99.90;;;;;;5075959;28;20287;-75
2021/06/02 06:37:50;;;;;;;5.75;4.82;;;22.80;99.90;;;;;;5069801;28;20211;-75
2021/06/02 06:40:23;;;;;;;6.07;4.97;;;22.90;99.90;;;;;;5090610;28;20689;-68
2021/06/02 06:42:54;;;;;;;5.40;4.78;;;22.90;99.90;;;;;;5090404;28;20299;-67
2021/06/02 06:45:27;;;;;;;6.53;4.47;;;22.90;99.90;;;;;;5090475;28;20184;-67
2021/06/02 06:47:57;;;;;;;7.22;5.15;;;22.70;99.90;;;;;;5077153;28;20197;-68
2021/06/02 06:50:25;;;;;;;8.77;5.03;;;22.60;99.90;;;;;;5069831;28;20201;-67
2021/06/02 06:52:55;;;;;;;4.95;4.53;;;22.40;99.90;;;;;;5069160;28;20324;-71
2021/06/02 06:55:24;;;;;;;4.95;4.53;;;22.40;99.90;;;;;;5069926;28;20205;-66
2021/06/02 06:57:52;;;;;;;5.32;4.70;;;22.50;99.90;;;;;;5070168;28;20204;-64
2021/06/02 07:00:20;;;;;;;5.82;4.75;;;22.50;99.90;;;;;;5069480;28;20532;-63
2021/06/02 07:02:47;;;;;;;6.88;4.53;;;22.50;99.90;;;;;;5069846;28;20307;-74
2021/06/02 07:05:18;;;;;;;5.00;4.53;;;22.70;99.90;;;;;;5084974;28;20206;-73
2021/06/02 07:07:46;;;;;;;5.75;4.57;;;22.70;99.90;;;;;;5089908;28;20234;-74
2021/06/02 07:10:15;;;;;;;5.00;4.38;;;22.90;99.90;;;;;;5089692;28;20204;-72
2021/06/02 07:12:45;;;;;;;5.50;4.88;;;22.90;99.90;;;;;;5090234;28;20199;-74
2021/06/02 07:15:16;;;;;;;5.38;3.95;;;22.80;99.90;;;;;;5090086;28;20184;-76
2021/06/02 07:17:49;;;;;;;4.85;4.35;;;22.70;99.90;;;;;;5090050;28;20185;-74
2021/06/02 07:20:20;;;;;;;4.70;4.28;;;22.60;99.90;;;;;;5089552;28;20273;-72
2021/06/02 07:22:49;;;;;;;6.22;4.50;;;22.60;99.90;;;;;;5089834;28;20251;-71
2021/06/02 07:25:19;;;;;;;5.78;4.60;;;22.60;99.90;;;;;;5086792;28;20192;-72
2021/06/02 07:27:49;;;;;;;5.65;4.75;;;22.60;99.90;;;;;;5069532;28;20582;-71
2021/06/02 07:30:19;;;;;;;5.18;4.22;;;22.60;99.90;;;;;;5069678;28;20288;-70
2021/06/02 07:32:46;;;;;;;5.00;4.60;;;22.40;99.90;;;;;;5069227;28;20653;-61
2021/06/02 07:35:14;;;;;;;5.72;4.70;;;22.30;99.90;;;;;;5068874;28;20211;-61
2021/06/02 07:37:41;;;;;;;4.88;4.40;;;22.20;99.90;;;;;;5070660;28;20440;-60
2021/06/02 07:40:09;;;;;;;6.65;4.47;;;21.90;99.90;;;;;;5089390;28;20723;-60
2021/06/02 07:42:37;;;;;;;5.65;4.65;;;21.60;99.90;;;;;;5089304;28;20222;-62
2021/06/02 07:45:07;;;;;;;5.47;4.50;;;21.30;99.90;;;;;;5089040;28;20202;-60
2021/06/02 07:47:34;;;;;;;5.63;4.70;;;21.10;99.90;;;;;;5089017;28;20234;-61
2021/06/02 07:50:02;;;;;;;5.68;5.05;;;21.00;99.90;;;;;;5089111;28;20204;-62
2021/06/02 07:52:29;;;;;;;5.43;4.00;;;21.10;99.90;;;;;;5089032;28;20259;-62
2021/06/02 07:54:59;;;;;;;4.45;4.00;;;21.10;99.90;;;;;;5088615;28;20203;-62
2021/06/02 07:57:27;;;;;;;5.03;4.03;;;21.20;99.90;;;;;;5048804;28;20244;-63
2021/06/02 07:59:54;;;;;;;5.38;4.30;;;21.40;99.90;;;;;;5048840;28;20296;-62
2021/06/02 08:02:23;;;;;;;6.38;4.25;;;21.60;99.90;;;;;;5048709;28;20229;-62
2021/06/02 08:04:50;;;;;;;4.25;3.85;;;21.80;99.90;;;;;;5048775;28;20224;-63
2021/06/02 08:07:18;;;;;;;5.63;4.03;;;21.80;99.90;;;;;;5048800;28;20994;-62
2021/06/02 08:09:45;;;;;;;5.13;3.95;;;22.00;99.90;;;;;;5049120;28;20308;-63
2021/06/02 08:12:13;;;;;;;4.70;3.97;;;22.00;99.90;;;;;;5049093;28;20203;-62
2021/06/02 08:14:40;;;;;;;4.45;3.97;;;21.90;99.90;;;;;;5049209;28;20208;-63
2021/06/02 08:17:08;;;;;;;4.53;3.88;;;21.80;99.90;;;;;;5048462;28;20583;-65
2021/06/02 08:19:37;;;;;;;4.18;3.78;;;21.80;99.90;;;;;;5049297;28;20661;-64
2021/06/02 08:22:05;;;;;;;5.93;3.53;;;21.80;99.90;;;;;;5048707;28;20213;-62
2021/06/02 08:24:38;;;;;;;7.00;3.97;;;21.80;99.90;;;;;;5048963;28;20304;-62
2021/06/02 08:27:10;;;;;;;4.80;3.25;;;21.90;99.90;;;;;;5066201;28;20763;-62
2021/06/02 08:29:37;;;;;;;3.90;3.50;;;22.00;99.90;;;;;;5068860;28;20543;-62
2021/06/02 08:32:05;;;;;;;3.95;3.55;;;22.10;99.90;;;;;;5068517;28;20201;-64
2021/06/02 08:34:33;;;;;;;3.90;3.50;;;22.10;99.90;;;;;;5068445;28;20223;-63
2021/06/02 08:37:02;;;;;;;4.07;3.67;;;22.10;99.90;;;;;;5067709;28;20201;-67
2021/06/02 08:39:29;;;;;;;4.03;3.42;;;22.00;99.90;;;;;;5084908;28;20228;-67
2021/06/02 08:42:14;;;;;;;3.67;3.38;;;21.80;99.90;;;;;;5089031;28;20294;-66
2021/06/02 08:44:41;;;;;;;5.93;3.70;;;21.80;99.90;;;;;;5088830;28;20204;-67
2021/06/02 08:47:09;;;;;;;4.00;3.53;;;21.70;99.90;;;;;;5088229;28;20200;-67
2021/06/02 08:49:37;;;;;;;4.82;3.90;;;21.40;99.90;;;;;;5088829;28;20203;-63
2021/06/02 08:52:08;;;;;;;4.18;3.78;;;21.30;99.90;;;;;;5088509;28;20246;-60
2021/06/02 08:54:36;;;;;;;3.95;3.55;;;21.40;99.90;;;;;;5089149;28;20552;-64
2021/06/02 08:57:04;;;;;;;4.70;3.67;;;21.60;99.90;;;;;;5071369;28;20680;-60
2021/06/02 08:59:33;;;;;;;4.28;3.45;;;21.70;99.90;;;;;;5068869;28;20235;-61
2021/06/02 09:02:00;;;;;;;4.53;2.90;;;21.80;99.90;;;;;;5070270;28;20263;-69
2021/06/02 09:04:30;;;;;;;4.40;3.30;;;21.90;99.90;;;;;;5072402;28;20254;-64
2021/06/02 09:06:58;;;;;;;5.28;3.15;;;21.90;99.90;;;;;;5072102;28;20297;-64
2021/06/02 09:09:27;;;;;;;4.20;3.55;;;21.90;99.90;;;;;;5072150;28;20259;-64
2021/06/02 09:11:54;;;;;;;3.22;2.97;;;22.00;99.90;;;;;;5072328;28;20524;-64
2021/06/02 09:14:24;;;;;;;3.58;3.28;;;21.90;99.90;;;;;;5072166;28;20204;-63
2021/06/02 09:16:52;;;;;;;3.40;2.70;;;21.80;99.90;;;;;;5071595;28;20204;-63
2021/06/02 09:19:38;;;;;;;4.05;3.38;;;21.90;99.90;;;;;;5071772;28;20204;-64
2021/06/02 09:22:09;;;;;;;4.22;2.70;;;22.10;99.90;;;;;;5071718;28;20642;-61
2021/06/02 09:24:54;;;;;;;3.22;2.92;;;22.10;99.90;;;;;;5071863;28;20207;-65
2021/06/02 09:27:46;;;;;;;5.03;2.75;;;22.10;99.90;;;;;;5071574;28;20694;-66
2021/06/02 09:30:16;;;;;;;4.43;3.25;;;22.10;99.90;;;;;;5071645;28;20288;-65
2021/06/02 09:32:46;;;;;;;3.58;2.80;;;22.10;99.90;;;;;;5071779;28;20197;-62
2021/06/02 09:35:14;;;;;;;3.40;3.10;;;22.10;99.90;;;;;;5071509;28;20286;-61
2021/06/02 09:37:54;;;;;;;4.05;3.20;;;22.00;99.90;;;;;;5073070;28;20224;-61
2021/06/02 09:40:27;;;;;;;3.30;3.00;;;22.10;99.90;;;;;;5091619;28;20190;-63
2021/06/02 09:42:56;;;;;;;3.88;3.22;;;22.10;99.90;;;;;;5091600;28;20200;-68
2021/06/02 09:45:23;;;;;;;3.65;3.00;;;22.20;99.90;;;;;;5091497;28;20354;-64
2021/06/02 09:47:52;;;;;;;3.42;2.95;;;22.20;99.90;;;;;;5091629;28;20199;-69
2021/06/02 09:50:27;;;;;;;4.93;3.00;;;22.30;99.90;;;;;;5091512;28;20747;-71
2021/06/02 09:52:55;;;;;;;4.38;3.05;;;22.50;99.90;;;;;;5091316;28;20223;-71
2021/06/02 09:55:29;;;;;;;3.60;2.90;;;22.60;99.90;;;;;;5087924;28;20204;-70
2021/06/02 09:58:11;;;;;;;3.08;2.88;;;22.60;99.90;;;;;;5071130;28;20185;-70
2021/06/02 10:00:42;;;;;;;3.83;2.85;;;22.60;99.90;;;;;;5071472;28;20189;-71
2021/06/02 10:03:12;;;;;;;3.08;2.78;;;22.70;99.90;;;;;;5071041;28;20303;-70
2021/06/02 10:05:41;;;;;;;3.08;2.63;;;22.80;99.90;;;;;;5070502;28;20185;-72
2021/06/02 10:08:11;;;;;;;4.32;3.15;;;22.80;99.90;;;;;;5070913;28;20747;-71
2021/06/02 10:10:40;;;;;;;4.15;3.72;;;22.90;99.90;;;;;;5070780;28;20739;-70
2021/06/02 10:13:09;;;;;;;3.35;3.05;;;22.90;99.90;;;;;;5070733;28;20201;-70
2021/06/02 10:15:39;;;;;;;5.28;3.30;;;22.80;99.90;;;;;;5071138;28;20200;-68
2021/06/02 10:18:24;;;;;;;3.15;2.90;;;22.80;99.90;;;;;;5070660;28;20403;-69
2021/06/02 10:21:02;;;;;;;4.18;3.33;;;22.90;99.90;;;;;;5070794;28;20204;-68
2021/06/02 10:23:32;;;;;;;3.47;3.05;;;22.90;99.90;;;;;;5070651;28;20277;-69
2021/06/02 10:26:04;;;;;;;3.60;3.30;;;23.00;99.90;;;;;;5070613;28;20631;-77
2021/06/02 10:28:32;;;;;;;4.25;3.28;;;23.10;99.90;;;;;;5070591;28;20700;-77
2021/06/02 10:31:00;;;;;;;3.70;3.40;;;23.10;99.90;;;;;;5070524;28;20299;-79
2021/06/02 10:33:29;;;;;;;3.55;3.25;;;23.10;99.90;;;;;;5070596;28;20201;-78
2021/06/02 10:35:58;;;;;;;3.50;3.20;;;23.00;99.90;;;;;;5070613;28;20250;-76
2021/06/02 10:38:28;;;;;;;3.92;3.00;;;23.10;99.90;;;;;;5078170;28;20235;-64
2021/06/02 10:40:58;;;;;;;4.15;3.25;;;23.20;99.90;;;;;;5090646;28;20224;-69
2021/06/02 10:43:31;;;;;;;3.67;3.35;;;23.20;99.90;;;;;;5089966;28;20754;-68
2021/06/02 10:46:03;;;;;;;4.55;3.30;;;23.30;99.90;;;;;;5090274;28;20202;-68
2021/06/02 10:48:41;;;;;;;3.75;2.95;;;23.30;99.90;;;;;;5090611;28;20184;-68
2021/06/02 10:51:09;;;;;;;3.30;3.00;;;23.30;99.90;;;;;;5089671;28;20863;-68
2021/06/02 10:53:36;;;;;;;3.17;2.90;;;23.40;99.90;;;;;;5090584;28;20181;-70
2021/06/02 10:56:05;;;;;;;3.65;3.25;;;23.50;99.90;;;;;;5081284;28;20204;-71
2021/06/02 10:58:34;;;;;;;5.18;2.85;;;23.60;99.90;;;;;;5070098;28;20200;-73
2021/06/02 11:01:18;;;;;;;3.80;3.50;;;23.60;99.90;;;;;;5069552;28;20195;-74
2021/06/02 11:03:48;;;;;;;4.05;3.25;;;23.60;99.90;;;;;;5072132;28;20311;-70
2021/06/02 11:06:38;;;;;;;3.70;3.20;;;23.70;99.90;;;;;;5072529;28;20751;-71
2021/06/02 11:09:14;;;;;;;4.15;3.17;;;23.70;99.90;;;;;;5073176;28;20181;-70
2021/06/02 11:11:43;;;;;;;3.95;3.20;;;23.60;99.90;;;;;;5072974;28;20180;-69
2021/06/02 11:14:27;;;;;;;3.95;3.50;;;23.50;99.90;;;;;;5072904;28;20200;-71
2021/06/02 11:17:16;;;;;;;4.95;3.60;;;23.40;99.90;;;;;;5072999;28;20339;-69
2021/06/02 11:19:55;;;;;;;4.72;3.30;;;23.50;99.90;;;;;;5072812;28;20195;-70
2021/06/02 11:22:27;;;;;;;3.80;3.35;;;23.60;99.90;;;;;;5072446;28;20246;-70
2021/06/02 11:24:56;;;;;;;3.92;3.63;;;23.70;99.90;;;;;;5072430;28;20291;-70
2021/06/02 11:27:35;;;;;;;4.65;3.53;;;23.60;99.90;;;;;;5072875;28;20234;-71
2021/06/02 11:30:17;;;;;;;3.95;3.30;;;23.70;99.90;;;;;;5073068;28;20189;-70
2021/06/02 11:33:11;;;;;;;3.83;3.47;;;23.80;99.90;;;;;;5072404;28;20605;-69
2021/06/02 11:36:04;;;;;;;4.63;3.70;;;24.00;99.90;;;;;;5072713;28;20557;-71
2021/06/02 11:38:33;;;;;;;4.03;3.63;;;24.10;99.90;;;;;;5066314;28;20287;-70
2021/06/02 11:41:01;;;;;;;3.45;3.15;;;24.10;99.90;;;;;;5089292;28;20543;-70
2021/06/02 11:43:29;;;;;;;4.93;3.67;;;24.30;99.90;;;;;;5072566;28;20225;-70
2021/06/02 11:46:00;;;;;;;4.45;3.90;;;24.30;99.90;;;;;;5072610;28;20287;-70
2021/06/02 11:48:33;;;;;;;4.65;3.53;;;24.30;99.90;;;;;;5072754;28;20189;-68
2021/06/02 11:51:06;;;;;;;4.93;3.75;;;24.40;99.90;;;;;;5072302;28;20687;-70
2021/06/02 11:53:47;;;;;;;4.05;3.65;;;24.50;99.90;;;;;;5072386;28;20654;-69
2021/06/02 11:56:15;;;;;;;3.92;3.53;;;24.40;99.90;;;;;;5072177;28;20205;-69
2021/06/02 11:58:49;;;;;;;4.18;3.88;;;24.40;99.90;;;;;;5072042;28;20283;-66
2021/06/02 12:01:26;;;;;;;3.88;3.47;;;24.30;99.90;;;;;;5071878;28;20192;-65
2021/06/02 12:03:56;;;;;;;4.30;3.90;;;24.10;99.90;;;;;;5089482;28;20294;-66
2021/06/02 12:06:32;;;;;;;6.20;3.70;;;24.10;99.90;;;;;;5089565;28;20195;-65
2021/06/02 12:09:10;;;;;;;4.18;3.72;;;24.10;99.90;;;;;;5089493;28;20183;-68
2021/06/02 12:11:38;;;;;;;5.45;3.75;;;24.30;99.90;;;;;;5089923;28;20276;-68
2021/06/02 12:14:19;;;;;;;3.85;3.55;;;24.40;99.90;;;;;;5089597;28;20729;-74
2021/06/02 12:16:47;;;;;;;4.07;3.60;;;24.60;99.90;;;;;;5090047;28;20210;-77
2021/06/02 12:19:17;;;;;;;3.97;3.65;;;24.80;99.90;;;;;;5089708;28;20652;-77
2021/06/02 12:21:45;;;;;;;5.07;3.95;;;25.10;99.90;;;;;;5089786;28;20206;-63
2021/06/02 12:24:14;;;;;;;4.75;3.97;;;25.40;99.90;;;;;;5089739;28;20226;-63
2021/06/02 12:26:43;;;;;;;4.47;4.07;;;25.60;99.90;;;;;;5076573;28;20295;-66
2021/06/02 12:29:11;;;;;;;4.45;3.88;;;25.70;99.90;;;;;;5071232;28;20668;-66
2021/06/02 12:31:41;;;;;;;4.70;4.25;;;25.80;99.90;;;;;;5070969;28;20201;-62
2021/06/02 12:34:14;;;;;;;4.70;4.30;;;25.50;99.90;;;;;;5070741;28;20187;-66
2021/06/02 12:36:42;;;;;;;4.20;3.90;;;25.20;99.90;;;;;;5071548;28;20276;-64
2021/06/02 12:39:12;;;;;;;4.15;3.85;;;25.10;99.90;;;;;;5087595;28;20203;-65
2021/06/02 12:41:42;;;;;;;3.80;3.50;;;25.00;99.90;;;;;;5094151;28;20293;-63
2021/06/02 12:44:10;;;;;;;4.72;4.13;;;24.90;99.90;;;;;;5094247;28;20216;-62
2021/06/02 12:46:37;;;;;;;4.50;4.03;;;24.90;99.90;;;;;;5094156;28;20283;-64
2021/06/02 12:49:07;;;;;;;4.47;3.65;;;24.80;99.90;;;;;;5093416;28;20639;-64
2021/06/02 12:51:37;;;;;;;4.50;4.03;;;24.80;99.90;;;;;;5093041;28;20303;-61
2021/06/02 12:54:05;;;;;;;4.47;4.00;;;24.80;99.90;;;;;;5092853;28;20632;-63
2021/06/02 12:56:40;;;;;;;4.70;4.30;;;24.90;99.90;;;;;;5079849;28;20255;-63
2021/06/02 12:59:08;;;;;;;6.50;4.45;;;25.00;99.90;;;;;;5073016;28;20279;-64
2021/06/02 13:01:35;;;;;;;4.43;4.03;;;24.90;99.90;;;;;;5073142;28;20204;-63
2021/06/02 13:04:04;;;;;;;3.95;3.60;;;24.90;99.90;;;;;;5073244;28;20262;-63
2021/06/02 13:06:32;;;;;;;4.70;3.55;;;24.90;99.90;;;;;;5073165;28;20291;-62
2021/06/02 13:09:09;;;;;;;4.25;3.63;;;24.70;99.90;;;;;;5072444;28;20552;-62
2021/06/02 13:11:36;;;;;;;4.53;4.13;;;24.70;99.90;;;;;;5071814;28;20642;-64
2021/06/02 13:14:04;;;;;;;4.22;3.75;;;24.80;99.90;;;;;;5072095;28;20216;-63
2021/06/02 13:16:32;;;;;;;4.40;4.00;;;24.90;99.90;;;;;;5071795;28;20197;-62
2021/06/02 13:19:01;;;;;;;5.47;3.75;;;24.90;99.90;;;;;;5072143;28;20205;-63
2021/06/02 13:21:31;;;;;;;4.05;3.75;;;25.00;99.90;;;;;;5071881;28;20229;-63
2021/06/02 13:24:14;;;;;;;3.35;3.15;;;25.10;99.90;;;;;;5071747;28;20252;-63
2021/06/02 13:26:46;;;;;;;4.07;3.50;;;25.30;99.90;;;;;;5072058;28;20331;-62
2021/06/02 13:29:13;;;;;;;4.72;4.30;;;25.40;99.90;;;;;;5071754;28;20185;-63
2021/06/02 13:31:42;;;;;;;6.85;3.88;;;25.50;99.90;;;;;;5071903;28;20300;-61